Time;durP1;ratioP1;P1;durP2;ratioP2;P2;SDS_P1;SDS_P2;PMS_P1;PMS_P2;Temp;Humidity;BMP_temperature;BMP_pressure;BME280_temperature;BME280_humidity;BME280_pressure;Samples;Min_cycle;Max_cycle;Signal;HPM_P1;HPM_P2
2022/12/10 00:01:22;;;;;;;6.70;1.70;;;24.50;99.90;;;;;;4936282;29;20670;-68
2022/12/10 00:03:50;;;;;;;10.23;1.67;;;24.20;99.90;;;;;;4936511;29;20208;-68
2022/12/10 00:06:20;;;;;;;8.23;1.77;;;23.60;99.90;;;;;;4936374;29;20180;-68
2022/12/10 00:08:48;;;;;;;8.97;1.97;;;23.60;99.90;;;;;;4936114;29;20177;-72
2022/12/10 00:11:17;;;;;;;6.70;1.80;;;23.90;99.90;;;;;;4936121;29;20180;-68
2022/12/10 00:13:45;;;;;;;6.50;1.90;;;23.60;99.90;;;;;;4936095;29;20176;-69
2022/12/10 00:16:14;;;;;;;4.40;1.67;;;23.20;99.90;;;;;;4935941;29;20666;-68
2022/12/10 00:18:42;;;;;;;9.47;1.50;;;22.80;99.90;;;;;;4936131;29;20540;-68
2022/12/10 00:21:18;;;;;;;8.03;1.90;;;22.80;99.90;;;;;;4936207;29;20231;-73
2022/12/10 00:23:46;;;;;;;6.93;1.93;;;22.90;99.90;;;;;;4936002;29;20183;-69
2022/12/10 00:26:20;;;;;;;4.83;1.70;;;23.00;99.90;;;;;;4935879;29;20268;-68
2022/12/10 00:28:48;;;;;;;8.87;1.60;;;23.10;99.90;;;;;;4936224;29;20211;-68
2022/12/10 00:31:24;;;;;;;9.13;1.97;;;23.20;99.90;;;;;;4935989;29;20172;-67
2022/12/10 00:33:55;;;;;;;6.90;1.90;;;23.20;99.90;;;;;;4935807;29;20195;-67
2022/12/10 00:36:31;;;;;;;5.43;1.67;;;23.50;99.90;;;;;;4935745;29;20322;-68
2022/12/10 00:38:59;;;;;;;6.63;1.63;;;23.90;99.90;;;;;;4936368;29;20687;-70
2022/12/10 00:41:27;;;;;;;5.90;1.30;;;24.70;99.90;;;;;;4936088;29;20529;-67
2022/12/10 00:43:55;;;;;;;8.07;1.47;;;25.20;99.90;;;;;;4935957;29;20183;-67
2022/12/10 00:46:23;;;;;;;7.27;1.83;;;25.90;99.90;;;;;;4935771;29;20196;-67
2022/12/10 00:48:50;;;;;;;10.83;1.83;;;26.30;99.90;;;;;;4937617;29;20275;-71
2022/12/10 00:51:22;;;;;;;4.63;1.70;;;26.90;99.90;;;;;;4939561;29;20240;-67
2022/12/10 00:53:52;;;;;;;10.10;1.77;;;26.40;97.30;;;;;;4939725;29;20181;-67
2022/12/10 00:56:28;;;;;;;7.37;1.67;;;25.70;95.60;;;;;;4939688;29;20259;-67
2022/12/10 00:58:56;;;;;;;10.47;1.90;;;24.50;99.00;;;;;;4939744;29;20194;-73
2022/12/10 01:01:28;;;;;;;7.53;1.60;;;24.10;99.90;;;;;;4939908;29;20189;-67
2022/12/10 01:03:58;;;;;;;10.57;1.80;;;23.80;99.90;;;;;;4939607;29;20204;-67
2022/12/10 01:06:30;;;;;;;8.80;1.93;;;23.70;99.90;;;;;;4939437;29;20184;-73
2022/12/10 01:08:59;;;;;;;10.20;1.90;;;23.70;99.90;;;;;;4939448;29;20186;-73
2022/12/10 01:11:30;;;;;;;9.53;1.63;;;23.50;99.90;;;;;;4939737;29;20650;-67
2022/12/10 01:13:58;;;;;;;5.47;1.73;;;23.50;99.90;;;;;;4939324;29;20181;-72
2022/12/10 01:16:26;;;;;;;8.23;1.67;;;23.50;99.90;;;;;;4939718;29;20208;-68
2022/12/10 01:18:55;;;;;;;10.97;2.10;;;23.30;99.90;;;;;;4939253;29;20191;-67
2022/12/10 01:21:24;;;;;;;5.07;1.93;;;23.30;99.90;;;;;;4939497;29;20177;-68
2022/12/10 01:23:52;;;;;;;6.53;1.70;;;23.20;99.90;;;;;;4939356;29;20177;-67
2022/12/10 01:26:25;;;;;;;3.93;1.57;;;23.10;99.90;;;;;;4939058;29;20173;-67
2022/12/10 01:28:54;;;;;;;7.17;1.37;;;23.00;99.90;;;;;;4939207;29;20631;-67
2022/12/10 01:31:25;;;;;;;9.07;1.70;;;22.80;99.90;;;;;;4938831;29;20177;-67
2022/12/10 01:33:53;;;;;;;11.03;1.77;;;22.80;99.90;;;;;;4939137;29;20268;-70
2022/12/10 01:36:23;;;;;;;8.50;2.10;;;22.80;99.90;;;;;;4938957;29;20223;-67
2022/12/10 01:38:51;;;;;;;9.63;1.73;;;22.90;99.90;;;;;;4939565;29;20277;-67
2022/12/10 01:41:22;;;;;;;3.47;1.57;;;23.10;99.90;;;;;;4939046;29;20191;-67
2022/12/10 01:43:52;;;;;;;6.73;1.97;;;23.00;99.90;;;;;;4939128;29;20353;-67
2022/12/10 01:46:21;;;;;;;7.13;1.90;;;23.30;99.90;;;;;;4939076;29;20180;-68
2022/12/10 01:48:49;;;;;;;9.77;2.17;;;23.10;99.90;;;;;;4938681;29;20187;-67
2022/12/10 01:51:17;;;;;;;4.20;1.50;;;23.40;99.90;;;;;;4938511;29;20416;-67
2022/12/10 01:53:46;;;;;;;7.63;2.00;;;23.70;99.90;;;;;;4938806;29;20180;-72
2022/12/10 01:56:16;;;;;;;7.43;1.83;;;23.80;99.90;;;;;;4922088;29;20224;-68
2022/12/10 01:58:43;;;;;;;7.97;1.60;;;24.20;99.90;;;;;;4938433;29;20211;-67
2022/12/10 02:01:45;;;;;;;4.83;1.80;;;24.20;99.90;;;;;;4938409;29;20181;-68
2022/12/10 02:04:17;;;;;;;10.10;1.90;;;24.60;99.90;;;;;;4938277;29;20222;-67
2022/12/10 02:07:25;;;;;;;9.97;1.70;;;24.60;99.90;;;;;;4938324;29;20262;-72
2022/12/10 02:10:22;;;;;;;5.37;1.90;;;24.30;99.90;;;;;;4908985;29;20207;-67
2022/12/10 02:13:18;;;;;;;4.70;1.60;;;23.50;99.90;;;;;;4917696;29;20194;-67
2022/12/10 02:16:03;;;;;;;8.53;1.63;;;23.20;99.90;;;;;;4913642;29;20215;-67
2022/12/10 02:18:58;;;;;;;6.37;1.63;;;22.90;99.90;;;;;;4938289;29;20227;-67
2022/12/10 02:21:39;;;;;;;7.43;1.70;;;22.90;99.90;;;;;;4938195;29;20324;-67
2022/12/10 02:24:12;;;;;;;8.37;1.50;;;23.20;99.90;;;;;;4938177;29;20181;-67
2022/12/10 02:27:10;;;;;;;4.73;1.17;;;22.80;99.90;;;;;;4937935;29;20275;-70
2022/12/10 02:29:39;;;;;;;5.87;1.17;;;22.70;99.90;;;;;;4937553;29;20616;-67
2022/12/10 02:32:14;;;;;;;9.67;1.70;;;22.60;99.90;;;;;;4938059;29;20660;-68
2022/12/10 02:34:56;;;;;;;8.27;1.83;;;22.90;99.90;;;;;;4938255;29;20570;-67
2022/12/10 02:37:33;;;;;;;5.07;1.60;;;23.10;99.90;;;;;;4937618;29;20274;-68
2022/12/10 02:40:05;;;;;;;7.57;1.33;;;23.10;99.90;;;;;;4937947;29;20180;-68
2022/12/10 02:42:38;;;;;;;5.97;1.40;;;23.40;99.90;;;;;;4937742;29;20599;-68
2022/12/10 02:45:07;;;;;;;8.50;2.10;;;23.20;99.90;;;;;;4937651;29;20658;-68
2022/12/10 02:47:37;;;;;;;5.03;1.30;;;23.30;99.90;;;;;;4937340;29;20187;-69
2022/12/10 02:50:06;;;;;;;8.17;1.50;;;23.50;99.90;;;;;;4937621;29;20191;-66
2022/12/10 02:52:33;;;;;;;10.17;1.50;;;23.80;99.90;;;;;;4937458;29;20178;-67
2022/12/10 02:55:01;;;;;;;7.37;1.43;;;24.00;99.90;;;;;;4937660;29;20188;-68
2022/12/10 02:57:46;;;;;;;7.60;1.53;;;24.20;99.90;;;;;;4937387;29;20221;-69
2022/12/10 03:00:20;;;;;;;3.87;1.23;;;24.70;99.90;;;;;;4937844;29;20680;-67
2022/12/10 03:02:47;;;;;;;4.10;1.50;;;24.80;99.90;;;;;;4937362;29;20177;-67
2022/12/10 03:05:39;;;;;;;14.03;2.07;;;24.80;99.90;;;;;;4937380;29;20176;-67
2022/12/10 03:08:19;;;;;;;5.73;1.70;;;24.80;99.90;;;;;;4937045;29;20639;-70
2022/12/10 03:11:00;;;;;;;4.97;1.97;;;24.60;99.90;;;;;;4936664;29;20180;-73
2022/12/10 03:13:36;;;;;;;8.83;2.00;;;24.50;99.90;;;;;;4937000;29;20179;-67
2022/12/10 03:16:05;;;;;;;4.53;1.97;;;24.60;99.90;;;;;;4937238;29;20267;-73
2022/12/10 03:18:35;;;;;;;7.23;1.80;;;25.60;99.90;;;;;;4936969;29;20207;-69
2022/12/10 03:21:06;;;;;;;6.07;1.93;;;26.00;99.90;;;;;;4936802;29;20288;-68
2022/12/10 03:23:36;;;;;;;6.20;1.73;;;25.90;99.90;;;;;;4936944;29;20177;-68
2022/12/10 03:26:05;;;;;;;10.30;1.93;;;25.70;99.90;;;;;;4937152;29;20173;-70
2022/12/10 03:28:42;;;;;;;13.80;1.87;;;25.40;99.90;;;;;;4936965;29;20180;-73
2022/12/10 03:31:13;;;;;;;10.27;2.67;;;25.40;99.90;;;;;;4936909;29;20190;-68
2022/12/10 03:33:41;;;;;;;7.30;1.80;;;25.70;99.90;;;;;;4937066;29;20312;-73
2022/12/10 03:36:09;;;;;;;8.53;2.10;;;26.00;99.90;;;;;;4936818;29;20668;-66
2022/12/10 03:38:38;;;;;;;6.17;1.80;;;26.30;99.90;;;;;;4936576;29;20187;-67
2022/12/10 03:41:05;;;;;;;3.23;1.23;;;26.60;99.50;;;;;;4936678;29;20514;-74
2022/12/10 03:43:33;;;;;;;9.63;1.70;;;26.70;99.90;;;;;;4936662;29;20721;-67
2022/12/10 03:46:01;;;;;;;9.47;1.53;;;27.00;99.90;;;;;;4936610;29;20195;-74
2022/12/10 03:48:28;;;;;;;7.67;1.73;;;27.10;99.50;;;;;;4936438;29;20309;-73
2022/12/10 03:50:56;;;;;;;8.47;1.90;;;26.50;97.40;;;;;;4936508;29;20235;-68
2022/12/10 03:53:23;;;;;;;10.17;1.97;;;25.20;99.90;;;;;;4936414;29;20173;-68
2022/12/10 03:55:50;;;;;;;6.67;1.70;;;25.00;99.90;;;;;;4936459;29;20184;-68
2022/12/10 03:58:18;;;;;;;7.97;1.63;;;25.30;99.90;;;;;;4936500;29;20187;-69
2022/12/10 04:00:45;;;;;;;9.00;2.00;;;26.10;99.90;;;;;;4934985;29;20572;-73
2022/12/10 04:03:12;;;;;;;7.40;1.67;;;26.50;98.30;;;;;;4935737;29;20225;-75
2022/12/10 04:05:40;;;;;;;6.00;2.07;;;25.80;97.90;;;;;;4935427;29;20666;-75
2022/12/10 04:08:07;;;;;;;8.33;2.10;;;25.20;99.90;;;;;;4936347;29;20172;-70
2022/12/10 04:10:38;;;;;;;12.57;2.00;;;24.50;99.90;;;;;;4935642;29;20181;-70
2022/12/10 04:18:36;;;;;;;8.57;1.87;;;26.30;99.90;;;;;;4936473;29;20191;-69
2022/12/10 04:26:55;;;;;;;7.63;1.83;;;26.30;99.90;;;;;;4895755;29;20659;-70
2022/12/10 04:29:27;;;;;;;7.37;1.47;;;26.70;99.90;;;;;;4895525;29;20264;-68
2022/12/10 04:31:55;;;;;;;6.60;2.40;;;26.80;99.90;;;;;;4907020;29;20201;-67
2022/12/10 04:34:23;;;;;;;5.77;1.30;;;26.50;99.90;;;;;;4916724;29;20545;-69
2022/12/10 04:36:51;;;;;;;11.13;1.80;;;26.30;99.90;;;;;;4923420;29;20208;-71
2022/12/10 04:39:19;;;;;;;5.47;1.63;;;25.60;99.90;;;;;;4936187;29;20173;-74
2022/12/10 04:41:48;;;;;;;6.43;1.97;;;25.20;99.90;;;;;;4935827;29;20647;-69
2022/12/10 04:44:16;;;;;;;7.73;2.00;;;25.00;99.90;;;;;;4935508;29;20203;-68
2022/12/10 04:46:43;;;;;;;7.97;1.40;;;24.80;99.90;;;;;;4935710;29;20202;-72
2022/12/10 04:49:11;;;;;;;6.03;1.10;;;24.70;99.90;;;;;;4935857;29;20182;-74
2022/12/10 04:51:39;;;;;;;9.87;1.87;;;24.50;99.90;;;;;;4935580;29;20651;-69
2022/12/10 04:54:07;;;;;;;13.43;2.07;;;24.30;99.90;;;;;;4935569;29;20631;-68
2022/12/10 04:56:35;;;;;;;9.40;2.03;;;23.70;99.90;;;;;;4935330;29;20244;-72
2022/12/10 04:59:03;;;;;;;4.37;1.30;;;23.90;99.90;;;;;;4935402;29;20645;-68
2022/12/10 05:01:31;;;;;;;8.13;1.77;;;24.10;99.90;;;;;;4935697;29;20652;-69
2022/12/10 05:04:03;;;;;;;9.47;1.60;;;23.90;99.90;;;;;;4935381;29;20219;-68
2022/12/10 05:06:32;;;;;;;3.03;1.30;;;23.90;99.90;;;;;;4935582;29;20180;-69
2022/12/10 05:08:59;;;;;;;6.70;1.77;;;23.60;99.90;;;;;;4935438;29;20251;-69
2022/12/10 05:11:30;;;;;;;4.73;1.40;;;23.40;99.90;;;;;;4935313;29;20207;-68
2022/12/10 05:13:58;;;;;;;4.53;1.53;;;23.40;99.90;;;;;;4935575;29;20187;-73
2022/12/10 05:16:29;;;;;;;5.60;1.50;;;23.20;99.90;;;;;;4935149;29;20219;-71
2022/12/10 05:18:57;;;;;;;8.40;1.53;;;23.20;99.90;;;;;;4935773;29;20266;-71
2022/12/10 05:23:27;;;;;;;7.27;1.80;;;23.30;99.90;;;;;;4935413;29;20212;-68
2022/12/10 05:24:15;;;;;;;6.00;1.80;;;23.50;99.90;;;;;;4935242;29;20203;-69
2022/12/10 05:26:43;;;;;;;5.63;1.40;;;24.20;99.90;;;;;;4935139;29;20191;-69
2022/12/10 05:29:12;;;;;;;7.37;1.50;;;24.90;99.90;;;;;;4918326;29;20275;-69
2022/12/10 05:31:39;;;;;;;5.17;1.80;;;25.20;99.90;;;;;;4935178;29;20180;-67
2022/12/10 05:34:08;;;;;;;8.03;1.27;;;25.40;99.90;;;;;;4935637;29;20191;-66
2022/12/10 05:36:35;;;;;;;3.83;1.10;;;25.40;99.90;;;;;;4938227;29;20631;-67
2022/12/10 05:39:04;;;;;;;7.33;1.83;;;24.90;99.90;;;;;;4938469;29;20191;-67
2022/12/10 05:41:34;;;;;;;7.63;1.53;;;24.70;99.90;;;;;;4935777;29;20205;-67
2022/12/10 05:44:02;;;;;;;6.70;1.47;;;25.00;99.90;;;;;;4938169;29;20275;-73
2022/12/10 05:46:31;;;;;;;8.07;1.83;;;25.30;99.90;;;;;;4938024;29;20658;-68
2022/12/10 05:49:00;;;;;;;8.27;1.33;;;25.30;99.90;;;;;;4938269;29;20180;-68
2022/12/10 05:51:30;;;;;;;8.50;1.37;;;25.60;99.90;;;;;;4937956;29;20246;-67
2022/12/10 05:54:01;;;;;;;4.63;1.53;;;25.40;99.90;;;;;;4938599;29;20180;-68
2022/12/10 05:56:28;;;;;;;8.60;1.73;;;24.50;99.90;;;;;;4937949;29;20219;-69
2022/12/10 05:59:01;;;;;;;5.50;1.33;;;24.80;99.90;;;;;;4938424;29;20188;-74
2022/12/10 06:01:32;;;;;;;7.17;1.67;;;24.60;99.90;;;;;;4938227;29;20181;-73
2022/12/10 06:04:01;;;;;;;9.93;1.80;;;24.40;99.90;;;;;;4936014;29;20227;-67
2022/12/10 06:06:32;;;;;;;6.47;1.53;;;24.40;99.90;;;;;;4937984;29;20180;-69
2022/12/10 06:08:59;;;;;;;10.17;1.40;;;24.60;99.90;;;;;;4936086;29;20220;-68
2022/12/10 06:11:27;;;;;;;10.00;1.27;;;24.30;99.90;;;;;;4937689;29;20185;-74
2022/12/10 06:13:59;;;;;;;4.80;1.33;;;24.00;99.90;;;;;;4937931;29;20192;-73
2022/12/10 06:16:28;;;;;;;6.03;1.10;;;23.70;99.90;;;;;;4937767;29;20229;-75
2022/12/10 06:18:56;;;;;;;5.33;1.20;;;23.80;99.90;;;;;;4938115;29;20202;-74
2022/12/10 06:21:24;;;;;;;5.77;1.67;;;23.90;99.90;;;;;;4937924;29;20595;-73
2022/12/10 06:23:52;;;;;;;8.47;1.53;;;23.90;99.90;;;;;;4937549;29;20184;-70
2022/12/10 06:26:24;;;;;;;11.03;1.50;;;23.80;99.90;;;;;;4934333;29;20560;-68
2022/12/10 06:28:53;;;;;;;7.13;1.23;;;23.90;99.90;;;;;;4936499;29;20182;-71
2022/12/10 06:31:20;;;;;;;10.27;1.80;;;23.40;99.90;;;;;;4936781;29;20194;-69
2022/12/10 06:33:49;;;;;;;8.47;1.93;;;23.40;99.90;;;;;;4938031;29;20288;-72
2022/12/10 06:36:18;;;;;;;6.93;1.53;;;23.50;99.90;;;;;;4936858;29;20231;-67
2022/12/10 06:38:46;;;;;;;6.93;1.47;;;23.60;99.90;;;;;;4942963;29;20622;-70
2022/12/10 06:41:15;;;;;;;6.93;1.60;;;23.50;99.90;;;;;;4956047;29;20176;-68
2022/12/10 06:43:42;;;;;;;6.30;1.67;;;23.30;99.90;;;;;;4940916;29;20646;-68
2022/12/10 06:46:14;;;;;;;9.07;1.63;;;23.20;99.90;;;;;;4934857;29;20211;-68
2022/12/10 06:48:42;;;;;;;8.73;1.63;;;23.10;99.90;;;;;;4933579;29;20236;-71
2022/12/10 06:51:10;;;;;;;10.80;1.90;;;23.10;99.90;;;;;;4944461;29;20632;-68
2022/12/10 06:53:39;;;;;;;7.63;1.57;;;22.90;99.90;;;;;;4935710;29;20181;-69
2022/12/10 06:56:08;;;;;;;7.43;1.83;;;22.80;99.90;;;;;;4935362;29;20245;-68
2022/12/10 06:58:36;;;;;;;5.20;1.60;;;22.70;99.90;;;;;;4935135;29;20200;-68
2022/12/10 07:01:05;;;;;;;8.87;1.60;;;22.80;99.90;;;;;;4935900;29;20243;-71
2022/12/10 07:03:33;;;;;;;9.13;1.70;;;22.80;99.90;;;;;;4934714;29;20200;-70
2022/12/10 07:06:01;;;;;;;5.90;1.80;;;22.80;99.90;;;;;;4935271;29;20195;-69
2022/12/10 07:08:29;;;;;;;4.00;1.10;;;22.90;99.90;;;;;;4935696;29;20193;-69
2022/12/10 07:10:56;;;;;;;7.80;1.83;;;22.60;99.90;;;;;;4935298;29;20203;-70
2022/12/10 07:13:24;;;;;;;4.43;1.37;;;22.40;99.90;;;;;;4933881;29;20244;-70
2022/12/10 07:15:52;;;;;;;7.50;1.73;;;22.40;99.90;;;;;;4935839;29;20202;-69
2022/12/10 07:18:19;;;;;;;5.43;1.33;;;22.40;99.90;;;;;;4934904;29;20251;-70
2022/12/10 07:20:47;;;;;;;8.20;2.03;;;22.40;99.90;;;;;;4934094;29;20192;-69
2022/12/10 07:23:15;;;;;;;12.47;2.53;;;22.50;99.90;;;;;;4935263;29;20189;-72
2022/12/10 07:25:42;;;;;;;9.37;1.80;;;22.50;99.90;;;;;;4935307;29;20225;-71
2022/12/10 07:28:09;;;;;;;8.07;1.67;;;22.50;99.90;;;;;;4947851;29;20719;-69
2022/12/10 07:30:37;;;;;;;7.03;1.83;;;22.40;99.90;;;;;;4954462;29;20192;-71
2022/12/10 07:33:04;;;;;;;5.70;1.53;;;22.40;99.90;;;;;;4935252;29;20669;-70
2022/12/10 07:35:32;;;;;;;5.57;1.40;;;22.40;99.90;;;;;;4933147;29;20184;-69
2022/12/10 07:37:59;;;;;;;6.93;1.77;;;22.40;99.90;;;;;;4934499;29;20219;-70
2022/12/10 07:40:27;;;;;;;7.63;1.53;;;22.30;99.90;;;;;;4934956;29;20176;-71
2022/12/10 07:42:54;;;;;;;4.93;1.43;;;22.20;99.90;;;;;;4934098;29;20192;-72
2022/12/10 07:45:21;;;;;;;4.30;1.20;;;22.20;99.90;;;;;;4934741;29;20275;-69
2022/12/10 07:47:49;;;;;;;6.80;1.70;;;22.30;99.90;;;;;;4934672;29;20207;-70
2022/12/10 07:50:16;;;;;;;6.33;1.50;;;22.20;99.90;;;;;;4934049;29;20377;-69
2022/12/10 07:52:44;;;;;;;5.63;1.67;;;22.10;99.90;;;;;;4932506;29;20183;-69
2022/12/10 07:55:11;;;;;;;5.60;1.20;;;22.00;99.90;;;;;;4934320;29;20200;-69
2022/12/10 07:57:38;;;;;;;9.43;1.83;;;21.70;99.90;;;;;;4933850;29;20212;-69
2022/12/10 08:00:06;;;;;;;5.87;1.60;;;21.60;99.90;;;;;;4934221;29;20185;-70
2022/12/10 08:02:34;;;;;;;8.73;1.80;;;21.40;99.90;;;;;;4934180;29;20637;-69
2022/12/10 08:05:01;;;;;;;6.50;1.57;;;21.30;99.90;;;;;;4933987;29;20185;-71
2022/12/10 08:07:28;;;;;;;9.40;1.93;;;21.10;99.90;;;;;;4934216;29;20522;-69
2022/12/10 08:09:56;;;;;;;7.10;1.80;;;20.90;99.90;;;;;;4934201;29;20190;-70
2022/12/10 08:12:23;;;;;;;8.87;1.53;;;20.90;99.90;;;;;;4933812;29;20205;-70
2022/12/10 08:14:50;;;;;;;5.20;1.60;;;20.70;99.90;;;;;;4934364;29;20250;-70
2022/12/10 08:17:18;;;;;;;4.73;1.50;;;20.70;99.90;;;;;;4934883;29;20224;-70
2022/12/10 08:19:45;;;;;;;5.80;1.77;;;20.60;99.90;;;;;;4934300;29;20243;-71
2022/12/10 08:22:12;;;;;;;6.33;1.67;;;20.50;99.90;;;;;;4934329;29;20198;-69
2022/12/10 08:24:40;;;;;;;8.90;2.27;;;20.40;99.90;;;;;;4934084;29;20188;-69
2022/12/10 08:27:07;;;;;;;5.97;1.67;;;20.40;99.90;;;;;;4933548;29;20283;-70
2022/12/10 08:29:34;;;;;;;5.23;1.77;;;20.30;99.90;;;;;;4934220;29;20200;-69
2022/12/10 08:32:02;;;;;;;8.93;1.87;;;20.20;99.90;;;;;;4934270;29;20548;-69
2022/12/10 08:34:29;;;;;;;5.87;1.70;;;20.00;99.90;;;;;;4934134;29;20210;-72
2022/12/10 08:36:57;;;;;;;5.97;1.33;;;20.00;99.90;;;;;;4934195;29;20288;-69
2022/12/10 08:39:24;;;;;;;7.00;1.47;;;19.90;99.90;;;;;;4932873;29;20605;-72
2022/12/10 08:41:51;;;;;;;7.07;1.53;;;19.80;99.90;;;;;;4933719;29;20185;-70
2022/12/10 08:44:19;;;;;;;6.10;2.00;;;19.70;99.90;;;;;;4934491;29;20193;-68
2022/12/10 08:46:46;;;;;;;9.67;1.90;;;19.70;99.90;;;;;;4934097;29;20197;-69
2022/12/10 08:49:14;;;;;;;4.97;1.60;;;19.70;99.90;;;;;;4933548;29;20276;-68
2022/12/10 08:51:41;;;;;;;10.50;1.83;;;19.60;99.90;;;;;;4933397;29;20315;-69
2022/12/10 08:54:09;;;;;;;10.07;2.03;;;19.60;99.90;;;;;;4934106;29;20646;-68
2022/12/10 08:56:38;;;;;;;7.30;1.50;;;19.50;99.90;;;;;;4933715;29;20223;-69
2022/12/10 08:59:06;;;;;;;7.03;1.77;;;19.40;99.90;;;;;;4934422;29;20267;-69
2022/12/10 09:01:34;;;;;;;5.57;1.43;;;19.40;99.90;;;;;;4934042;29;20235;-69
2022/12/10 09:04:01;;;;;;;8.03;1.80;;;19.30;99.90;;;;;;4933630;29;20192;-72
2022/12/10 09:06:30;;;;;;;9.43;1.77;;;19.20;99.90;;;;;;4934161;29;20186;-69
2022/12/10 09:08:57;;;;;;;6.70;1.43;;;19.20;99.90;;;;;;4934323;29;20240;-69
2022/12/10 09:11:26;;;;;;;6.63;1.40;;;19.10;99.90;;;;;;4937447;29;20227;-68
2022/12/10 09:13:54;;;;;;;8.57;1.90;;;19.10;99.90;;;;;;4938086;29;20180;-70
2022/12/10 09:16:22;;;;;;;9.13;2.07;;;19.10;99.90;;;;;;4936896;29;20701;-70
2022/12/10 09:18:49;;;;;;;7.73;1.93;;;19.00;99.90;;;;;;4937392;29;20207;-71
2022/12/10 09:21:18;;;;;;;7.77;1.50;;;19.00;99.90;;;;;;4937852;29;20243;-73
2022/12/10 09:23:45;;;;;;;11.07;2.57;;;18.90;99.90;;;;;;4936717;29;20277;-69
2022/12/10 09:26:15;;;;;;;7.50;2.03;;;18.90;99.90;;;;;;4937213;29;20189;-72
2022/12/10 09:28:45;;;;;;;7.63;1.87;;;18.80;99.90;;;;;;4920477;29;20195;-69
2022/12/10 09:31:14;;;;;;;10.00;1.73;;;18.80;99.90;;;;;;4937952;29;20219;-69
2022/12/10 09:33:42;;;;;;;7.27;1.67;;;18.80;99.90;;;;;;4937608;29;20180;-69
2022/12/10 09:36:11;;;;;;;6.73;1.53;;;18.70;99.90;;;;;;4937848;29;20205;-69
2022/12/10 09:38:42;;;;;;;6.67;1.60;;;18.70;99.90;;;;;;4937580;29;20644;-69
2022/12/10 09:41:15;;;;;;;5.80;1.60;;;18.70;99.90;;;;;;4937446;29;20519;-69
2022/12/10 09:44:03;;;;;;;10.80;1.77;;;18.60;99.90;;;;;;4937855;29;20203;-68
2022/12/10 09:46:59;;;;;;;6.60;2.00;;;18.60;99.90;;;;;;4937620;29;20181;-70
2022/12/10 09:49:49;;;;;;;5.20;1.70;;;18.50;99.90;;;;;;4936980;29;20275;-71
2022/12/10 09:52:19;;;;;;;9.33;1.87;;;18.60;99.90;;;;;;4937641;29;20200;-71
2022/12/10 09:54:55;;;;;;;8.03;1.90;;;18.60;99.90;;;;;;4941807;29;20650;-71
2022/12/10 09:57:31;;;;;;;6.87;1.60;;;18.50;99.90;;;;;;4937243;29;20686;-70
2022/12/10 10:00:07;;;;;;;6.17;1.50;;;18.50;99.90;;;;;;4918552;29;20188;-68
2022/12/10 10:02:34;;;;;;;6.87;1.70;;;18.50;99.90;;;;;;4928948;29;20195;-67
2022/12/10 10:05:07;;;;;;;6.20;1.83;;;18.40;99.90;;;;;;4937098;29;20232;-68
2022/12/10 10:07:39;;;;;;;5.83;1.50;;;18.40;99.90;;;;;;4935755;29;20228;-69
2022/12/10 10:10:28;;;;;;;5.27;1.60;;;18.40;99.90;;;;;;4933873;29;20213;-67
2022/12/10 10:13:20;;;;;;;11.10;1.80;;;18.40;99.90;;;;;;4931204;29;20287;-72
2022/12/10 10:15:49;;;;;;;6.30;1.43;;;18.30;99.90;;;;;;4934723;29;20199;-68
2022/12/10 10:18:22;;;;;;;5.27;1.83;;;18.40;99.90;;;;;;4932347;29;20236;-69
2022/12/10 10:20:50;;;;;;;5.20;1.50;;;18.40;99.90;;;;;;4933243;29;20192;-70
2022/12/10 10:23:18;;;;;;;5.03;1.40;;;18.40;99.90;;;;;;4934189;29;20208;-67
2022/12/10 10:25:46;;;;;;;7.13;1.53;;;18.40;99.90;;;;;;4934702;29;20195;-68
2022/12/10 10:28:18;;;;;;;7.93;1.73;;;18.50;99.90;;;;;;4934649;29;20201;-68
2022/12/10 10:30:46;;;;;;;7.57;1.83;;;18.40;99.90;;;;;;4934091;29;20267;-69
2022/12/10 10:33:15;;;;;;;7.77;1.47;;;18.30;99.90;;;;;;4934213;29;20208;-68
2022/12/10 10:35:54;;;;;;;8.00;1.97;;;18.20;99.90;;;;;;4934471;29;20204;-68
2022/12/10 10:38:24;;;;;;;8.70;1.63;;;18.30;99.90;;;;;;4934215;29;20537;-68
2022/12/10 10:40:56;;;;;;;6.63;2.27;;;18.30;99.90;;;;;;4933822;29;20197;-68
2022/12/10 10:43:32;;;;;;;7.83;1.93;;;18.30;99.90;;;;;;4934386;29;20207;-68
2022/12/10 10:46:07;;;;;;;7.17;1.90;;;18.30;99.90;;;;;;4923661;29;20601;-68
2022/12/10 10:48:35;;;;;;;7.50;2.33;;;18.30;99.90;;;;;;4933741;29;20193;-69
2022/12/10 10:51:16;;;;;;;8.03;1.70;;;18.20;99.90;;;;;;4934475;29;20247;-68
2022/12/10 10:53:46;;;;;;;7.87;1.60;;;18.20;99.90;;;;;;4934450;29;20718;-68
2022/12/10 10:56:26;;;;;;;6.33;1.77;;;18.10;99.90;;;;;;4933757;29;20199;-68
2022/12/10 10:58:55;;;;;;;9.30;1.73;;;18.10;99.90;;;;;;4923958;29;20216;-69
2022/12/10 11:01:25;;;;;;;6.10;1.63;;;18.00;99.90;;;;;;4932558;29;20201;-68
2022/12/10 11:03:58;;;;;;;8.10;1.63;;;18.00;99.90;;;;;;4931515;29;20224;-69
2022/12/10 11:06:26;;;;;;;10.60;2.33;;;17.90;99.90;;;;;;4933505;29;20192;-68
2022/12/10 11:08:58;;;;;;;4.80;1.73;;;17.90;99.90;;;;;;4934063;29;20204;-68
2022/12/10 11:11:34;;;;;;;6.07;1.53;;;17.80;99.90;;;;;;4933230;29;20192;-68
2022/12/10 11:14:31;;;;;;;7.90;1.83;;;17.70;99.90;;;;;;4933702;29;20200;-69
2022/12/10 11:17:17;;;;;;;5.47;1.53;;;17.50;99.90;;;;;;4923948;29;20235;-69
2022/12/10 11:20:04;;;;;;;7.83;2.33;;;17.40;99.90;;;;;;4934143;29;20192;-70
2022/12/10 11:22:34;;;;;;;6.33;1.87;;;17.30;99.90;;;;;;4933422;29;20204;-69
2022/12/10 11:25:02;;;;;;;8.00;1.60;;;17.20;99.90;;;;;;4933552;29;20216;-69
2022/12/10 11:27:44;;;;;;;4.13;1.90;;;17.10;99.90;;;;;;4933672;29;20261;-69
2022/12/10 11:30:23;;;;;;;7.93;1.87;;;17.00;99.90;;;;;;4933191;29;20892;-69
2022/12/10 11:33:16;;;;;;;4.17;1.57;;;16.90;99.90;;;;;;4933140;29;20291;-69
2022/12/10 11:36:00;;;;;;;7.30;1.80;;;16.90;99.90;;;;;;4932562;29;20617;-69
2022/12/10 11:39:10;;;;;;;3.50;1.60;;;16.80;99.90;;;;;;4933863;29;20212;-68
2022/12/10 11:41:49;;;;;;;8.37;2.43;;;16.70;99.90;;;;;;4932880;29;20189;-67
2022/12/10 11:44:39;;;;;;;9.30;2.07;;;16.70;99.90;;;;;;4922709;29;20219;-68
2022/12/10 11:47:27;;;;;;;8.73;1.97;;;16.70;99.90;;;;;;4932358;29;20203;-68
2022/12/10 11:50:19;;;;;;;7.40;2.37;;;16.60;99.90;;;;;;4933019;29;20370;-68
2022/12/10 11:53:10;;;;;;;9.27;2.33;;;16.60;99.90;;;;;;4930956;29;20188;-69
2022/12/10 11:56:05;;;;;;;7.70;1.70;;;16.50;99.90;;;;;;4933770;29;20279;-68
2022/12/10 11:58:39;;;;;;;7.93;2.13;;;16.50;99.90;;;;;;4928673;29;20228;-68
2022/12/10 12:01:10;;;;;;;6.60;2.40;;;16.40;99.90;;;;;;4936192;29;20180;-68
2022/12/10 12:03:37;;;;;;;8.33;2.43;;;16.40;99.90;;;;;;4935735;29;20200;-66
2022/12/10 12:06:22;;;;;;;11.50;2.83;;;16.40;99.90;;;;;;4936249;29;20559;-67
2022/12/10 12:09:17;;;;;;;6.07;2.60;;;16.40;99.90;;;;;;4917387;29;20212;-67
2022/12/10 12:12:07;;;;;;;10.33;2.50;;;16.40;99.90;;;;;;4916058;29;20600;-67
2022/12/10 12:14:48;;;;;;;7.27;2.47;;;16.30;99.90;;;;;;4913986;29;20197;-67
2022/12/10 12:17:50;;;;;;;6.87;2.13;;;16.20;99.90;;;;;;4935601;29;20222;-73
2022/12/10 12:20:38;;;;;;;9.03;2.77;;;16.10;99.90;;;;;;4896362;29;20196;-73
2022/12/10 12:23:43;;;;;;;10.77;2.80;;;16.10;99.90;;;;;;4936219;29;20177;-67
2022/12/10 12:26:25;;;;;;;7.20;2.30;;;16.10;99.90;;;;;;4935883;29;20172;-68
2022/12/10 12:29:32;;;;;;;10.37;2.67;;;16.00;99.90;;;;;;4936422;29;20185;-68
2022/12/10 12:32:09;;;;;;;10.70;2.33;;;16.00;99.90;;;;;;4935980;29;20183;-69
2022/12/10 12:35:02;;;;;;;10.67;2.60;;;15.90;99.90;;;;;;4935869;29;20181;-69
2022/12/10 12:37:44;;;;;;;7.17;2.90;;;15.80;99.90;;;;;;4935668;29;20220;-67
2022/12/10 12:40:26;;;;;;;8.70;3.43;;;15.80;99.90;;;;;;4936034;29;20173;-67
2022/12/10 12:43:17;;;;;;;8.00;3.10;;;15.70;99.90;;;;;;4935925;29;20176;-69
2022/12/10 12:45:48;;;;;;;6.77;2.70;;;15.70;99.90;;;;;;4935025;29;20193;-67
2022/12/10 12:48:22;;;;;;;11.30;3.90;;;15.60;99.90;;;;;;4935711;29;20268;-67
2022/12/10 12:51:01;;;;;;;6.87;2.80;;;15.50;99.90;;;;;;4936066;29;20228;-67
2022/12/10 12:53:29;;;;;;;9.70;2.70;;;15.50;99.90;;;;;;4935731;29;20239;-67
2022/12/10 12:55:56;;;;;;;13.00;2.87;;;15.40;99.90;;;;;;4935483;29;20272;-67
2022/12/10 12:58:58;;;;;;;6.23;2.80;;;15.40;99.90;;;;;;4934405;29;20268;-71
2022/12/10 13:01:47;;;;;;;9.10;3.27;;;15.40;99.90;;;;;;4927398;29;20184;-67
2022/12/10 13:04:15;;;;;;;6.90;2.37;;;15.30;99.90;;;;;;4935756;29;20263;-71
2022/12/10 13:07:02;;;;;;;14.07;4.10;;;15.30;99.90;;;;;;4935199;29;20189;-66
2022/12/10 13:09:31;;;;;;;8.23;2.70;;;15.30;99.90;;;;;;4935689;29;20189;-75
2022/12/10 13:12:04;;;;;;;10.77;3.23;;;15.30;99.90;;;;;;4935087;29;20181;-66
2022/12/10 13:14:33;;;;;;;7.33;2.50;;;15.30;99.90;;;;;;4935471;29;20181;-66
2022/12/10 13:17:29;;;;;;;10.80;3.77;;;15.20;99.90;;;;;;4935315;29;20216;-70
2022/12/10 13:20:27;;;;;;;8.87;2.80;;;15.30;99.90;;;;;;4930668;29;20203;-68
2022/12/10 13:23:22;;;;;;;7.00;2.97;;;15.20;99.90;;;;;;4935451;29;20192;-67
2022/12/10 13:25:55;;;;;;;10.63;2.87;;;15.10;99.90;;;;;;4934402;29;20193;-67